createdAt,value
2023-04-15T00:02:36.689Z,6.85
2023-04-15T00:05:34.523Z,6.10
2023-04-15T00:08:01.735Z,5.38
2023-04-15T00:10:28.823Z,6.93
2023-04-15T00:12:55.809Z,5.75
2023-04-15T00:15:22.764Z,5.72
2023-04-15T00:17:52.209Z,6.38
2023-04-15T00:20:39.534Z,7.13
2023-04-15T00:23:40.511Z,6.82
2023-04-15T00:26:21.106Z,5.53
2023-04-15T00:28:50.038Z,6.72
2023-04-15T00:31:17.154Z,6.32
2023-04-15T00:33:44.762Z,6.93
2023-04-15T00:36:11.713Z,7.50
2023-04-15T00:38:38.614Z,7.03
2023-04-15T00:41:05.530Z,6.65
2023-04-15T00:43:32.736Z,6.50
2023-04-15T00:46:01.079Z,8.10
2023-04-15T00:48:28.512Z,7.78
2023-04-15T00:50:55.590Z,6.90
2023-04-15T00:53:23.012Z,7.72
2023-04-15T00:55:50.312Z,7.53
2023-04-15T00:58:17.723Z,6.53
2023-04-15T01:00:45.057Z,8.13
2023-04-15T01:03:12.169Z,6.53
2023-04-15T01:05:39.432Z,6.93
2023-04-15T01:08:06.835Z,7.10
2023-04-15T01:10:33.806Z,7.50
2023-04-15T01:13:01.325Z,7.60
2023-04-15T01:15:28.304Z,6.90
2023-04-15T01:17:55.344Z,7.20
2023-04-15T01:20:43.573Z,7.03
2023-04-15T01:23:45.543Z,6.18
2023-04-15T01:26:26.463Z,7.15
2023-04-15T01:28:53.323Z,7.35
2023-04-15T01:31:21.235Z,6.22
2023-04-15T01:33:48.543Z,7.18
2023-04-15T01:36:34.458Z,6.78
2023-04-15T01:39:01.715Z,7.18
2023-04-15T01:41:29.133Z,7.05
2023-04-15T01:43:56.049Z,6.05
2023-04-15T01:46:23.303Z,7.60
2023-04-15T01:48:50.315Z,6.78
2023-04-15T01:51:17.629Z,6.00
2023-04-15T01:53:44.731Z,6.93
2023-04-15T01:56:11.961Z,7.28
2023-04-15T01:58:40.533Z,7.20
2023-04-15T02:01:07.912Z,9.43
2023-04-15T02:03:35.118Z,7.60
2023-04-15T02:06:02.596Z,8.88
2023-04-15T02:08:29.824Z,8.80
2023-04-15T02:10:56.920Z,7.90
2023-04-15T02:13:25.494Z,9.48
2023-04-15T02:15:53.096Z,7.57
2023-04-15T02:18:40.582Z,8.40
2023-04-15T02:21:41.582Z,8.38
2023-04-15T02:24:44.674Z,8.45
2023-04-15T02:27:19.469Z,9.30
2023-04-15T02:29:46.575Z,7.70
2023-04-15T02:32:14.113Z,9.85
2023-04-15T02:34:42.896Z,8.35
2023-04-15T02:37:11.431Z,7.90
2023-04-15T02:39:38.991Z,7.18
2023-04-15T02:42:06.320Z,8.77
2023-04-15T02:44:35.313Z,6.88
2023-04-15T02:47:06.174Z,6.78
2023-04-15T02:49:33.956Z,6.03
2023-04-15T02:52:01.058Z,7.72
2023-04-15T02:54:31.048Z,7.68
2023-04-15T02:56:58.157Z,8.55
2023-04-15T02:59:25.440Z,9.23
2023-04-15T03:01:52.498Z,9.43
2023-04-15T03:04:19.720Z,10.25
2023-04-15T03:06:46.963Z,10.13
2023-04-15T03:09:13.996Z,8.48
2023-04-15T03:11:42.208Z,8.70
2023-04-15T03:14:10.089Z,9.30
2023-04-15T03:16:41.355Z,8.02
2023-04-15T03:19:08.593Z,6.85
2023-04-15T03:21:55.678Z,8.05
2023-04-15T03:24:56.662Z,9.27
2023-04-15T03:27:38.496Z,8.23
2023-04-15T03:30:07.821Z,8.13
2023-04-15T03:32:37.256Z,8.52
2023-04-15T03:35:06.592Z,10.02
2023-04-15T03:37:33.511Z,12.32
2023-04-15T03:40:00.642Z,11.93
2023-04-15T03:42:27.548Z,8.43
2023-04-15T03:44:54.631Z,10.50
2023-04-15T03:47:21.720Z,10.73
2023-04-15T03:49:48.722Z,10.00
2023-04-15T03:52:15.690Z,9.30
2023-04-15T03:54:42.588Z,10.52
2023-04-15T03:57:09.590Z,9.30
2023-04-15T03:59:36.503Z,9.80
2023-04-15T04:02:03.513Z,10.00
2023-04-15T04:04:30.723Z,8.82
2023-04-15T04:06:57.697Z,9.27
2023-04-15T04:09:24.819Z,9.05
2023-04-15T04:11:52.070Z,8.95
2023-04-15T04:14:19.089Z,9.35
2023-04-15T04:16:46.049Z,9.40
2023-04-15T04:19:21.692Z,10.10
2023-04-15T04:22:22.641Z,8.95
2023-04-15T04:25:23.717Z,8.38
2023-04-15T04:28:04.550Z,8.45
2023-04-15T04:30:31.696Z,7.70
2023-04-15T04:32:58.829Z,8.48
2023-04-15T04:35:25.911Z,7.03
2023-04-15T04:37:53.841Z,8.00
2023-04-15T04:40:20.847Z,8.38
2023-04-15T04:42:47.791Z,8.75
2023-04-15T04:45:15.211Z,9.75
2023-04-15T04:47:42.298Z,8.00
2023-04-15T04:50:10.603Z,8.50
2023-04-15T04:52:38.208Z,7.57
2023-04-15T04:55:05.987Z,9.30
2023-04-15T04:57:32.930Z,8.60
2023-04-15T04:59:59.842Z,8.85
2023-04-15T05:02:27.799Z,8.82
2023-04-15T05:04:54.967Z,9.65
2023-04-15T05:07:22.229Z,8.82
2023-04-15T05:09:49.272Z,7.90
2023-04-15T05:12:16.250Z,7.35
2023-04-15T05:14:43.221Z,6.88
2023-04-15T05:17:11.232Z,6.45
2023-04-15T05:19:58.692Z,6.45
2023-04-15T05:22:59.705Z,6.32
2023-04-15T05:26:00.683Z,5.18
2023-04-15T05:29:02.014Z,7.00
2023-04-15T05:31:50.701Z,6.95
2023-04-15T05:34:34.403Z,6.78
2023-04-15T05:37:02.432Z,7.65
2023-04-15T05:39:29.477Z,5.07
2023-04-15T05:41:57.716Z,6.03
2023-04-15T05:44:24.672Z,6.55
2023-04-15T05:46:51.669Z,4.32
2023-04-15T05:49:18.526Z,6.25
2023-04-15T05:51:47.457Z,5.60
2023-04-15T05:54:14.351Z,5.00
2023-04-15T05:56:41.252Z,5.38
2023-04-15T05:59:08.737Z,7.03
2023-04-15T06:01:35.715Z,6.00
2023-04-15T06:04:03.108Z,6.60
2023-04-15T06:06:30.210Z,6.10
2023-04-15T06:08:57.569Z,5.72
2023-04-15T06:11:24.830Z,5.93
2023-04-15T06:13:51.690Z,7.10
2023-04-15T06:16:38.926Z,7.05
2023-04-15T06:19:19.610Z,7.28
2023-04-15T06:22:06.730Z,7.47
2023-04-15T06:25:07.693Z,6.30
2023-04-15T06:27:48.467Z,7.72
2023-04-15T06:30:15.359Z,8.85
2023-04-15T06:33:03.065Z,7.32
2023-04-15T06:35:43.318Z,6.20
2023-04-15T06:38:10.862Z,8.57
2023-04-15T06:40:57.728Z,7.63
2023-04-15T06:43:39.229Z,7.55
2023-04-15T06:46:06.451Z,7.40
2023-04-15T06:48:33.404Z,9.50
2023-04-15T06:51:00.597Z,6.82
2023-04-15T06:53:28.130Z,6.88
2023-04-15T06:55:55.733Z,7.20
2023-04-15T06:58:22.869Z,6.93
2023-04-15T07:00:49.880Z,7.05
2023-04-15T07:03:17.052Z,7.43
2023-04-15T07:05:43.960Z,7.38
2023-04-15T07:08:10.907Z,6.63
2023-04-15T07:10:38.219Z,6.43
2023-04-15T07:13:05.882Z,5.22
2023-04-15T07:15:32.866Z,5.88
2023-04-15T07:18:20.783Z,6.28
2023-04-15T07:21:21.735Z,6.60
2023-04-15T07:24:02.335Z,5.57
2023-04-15T07:26:29.323Z,6.65
2023-04-15T07:28:56.409Z,6.22
2023-04-15T07:31:23.639Z,7.57
2023-04-15T07:33:52.133Z,6.63
2023-04-15T07:36:25.932Z,6.78
2023-04-15T07:38:53.906Z,7.05
2023-04-15T07:41:40.765Z,7.45
2023-04-15T07:44:41.804Z,5.95
2023-04-15T07:47:42.830Z,7.28
2023-04-15T07:50:43.780Z,6.10
2023-04-15T07:53:44.923Z,7.20
2023-04-15T07:56:45.754Z,6.70
2023-04-15T07:59:27.796Z,7.15
2023-04-15T08:01:55.322Z,6.63
2023-04-15T08:04:22.678Z,6.47
2023-04-15T08:06:50.475Z,8.10
2023-04-15T08:09:30.821Z,7.65
2023-04-15T08:12:13.538Z,7.30
2023-04-15T08:14:40.796Z,6.30
2023-04-15T08:17:07.874Z,8.50
2023-04-15T08:19:54.816Z,8.77
2023-04-15T08:22:58.776Z,8.40
2023-04-15T08:25:39.432Z,9.23
2023-04-15T08:28:07.500Z,7.70
2023-04-15T08:30:34.714Z,6.20
2023-04-15T08:33:21.834Z,6.20
2023-04-15T08:36:02.626Z,5.85
2023-04-15T08:38:29.757Z,5.95
2023-04-15T08:41:25.902Z,7.07
2023-04-15T08:44:11.043Z,6.93
2023-04-15T08:46:40.128Z,6.43
2023-04-15T08:49:11.036Z,6.53
2023-04-15T08:51:57.824Z,7.20
2023-04-15T08:54:58.812Z,8.10
2023-04-15T08:57:40.034Z,7.22
2023-04-15T09:00:10.189Z,8.30
2023-04-15T09:02:37.647Z,7.22
2023-04-15T09:05:07.228Z,7.43
2023-04-15T09:07:36.553Z,6.07
2023-04-15T09:10:04.624Z,6.15
2023-04-15T09:12:36.255Z,5.43
2023-04-15T09:15:22.875Z,4.03
2023-04-15T09:18:16.077Z,5.10
2023-04-15T09:21:08.656Z,5.25
2023-04-15T09:24:14.910Z,4.78
2023-04-15T09:26:58.354Z,5.72
2023-04-15T09:29:28.615Z,5.60
2023-04-15T09:31:55.878Z,5.32
2023-04-15T09:34:36.240Z,5.35
2023-04-15T09:37:04.540Z,4.78
2023-04-15T09:39:51.459Z,6.05
2023-04-15T09:42:24.766Z,5.35
2023-04-15T09:44:53.154Z,7.00
2023-04-15T09:47:41.844Z,5.13
2023-04-15T09:50:42.847Z,6.85
2023-04-15T09:53:24.620Z,6.30
2023-04-15T09:56:15.873Z,4.97
2023-04-15T09:59:16.942Z,6.38
2023-04-15T10:01:59.603Z,5.43
2023-04-15T10:04:28.740Z,5.30
2023-04-15T10:06:57.172Z,5.65
2023-04-15T10:09:24.951Z,5.85
2023-04-15T10:11:52.966Z,5.32
2023-04-15T10:14:21.146Z,6.63
2023-04-15T10:17:10.867Z,5.82
2023-04-15T10:20:13.874Z,5.28
2023-04-15T10:23:15.910Z,5.63
2023-04-15T10:25:59.083Z,4.53
2023-04-15T10:28:29.055Z,5.43
2023-04-15T10:30:57.627Z,5.50
2023-04-15T10:33:26.165Z,4.68
2023-04-15T10:35:55.887Z,6.22
2023-04-15T10:38:40.807Z,3.83
2023-04-15T10:41:22.063Z,5.28
2023-04-15T10:43:54.995Z,5.50
2023-04-15T10:46:38.858Z,5.22
2023-04-15T10:49:17.699Z,6.13
2023-04-15T10:51:53.541Z,6.07
2023-04-15T10:54:25.471Z,5.82
2023-04-15T10:57:14.826Z,4.50
2023-04-15T11:00:01.283Z,5.18
2023-04-15T11:03:07.734Z,5.75
2023-04-15T11:05:39.848Z,4.70
2023-04-15T11:08:07.043Z,5.68
2023-04-15T11:10:33.997Z,5.00
2023-04-15T11:13:04.350Z,5.85
2023-04-15T11:15:56.048Z,6.13
2023-04-15T11:19:07.893Z,4.32
2023-04-15T11:22:08.926Z,4.45
2023-04-15T11:24:53.214Z,5.40
2023-04-15T11:27:26.399Z,6.82
2023-04-15T11:29:53.622Z,5.55
2023-04-15T11:32:22.125Z,5.10
2023-04-15T11:34:49.948Z,5.50
2023-04-15T11:37:17.293Z,5.40
2023-04-15T11:40:05.003Z,6.53
2023-04-15T11:42:49.432Z,5.78
2023-04-15T11:45:17.832Z,6.63
2023-04-15T11:47:45.050Z,6.65
2023-04-15T11:50:33.908Z,4.15
2023-04-15T11:53:14.842Z,6.13
2023-04-15T11:55:53.837Z,5.93
2023-04-15T11:58:23.894Z,8.23
2023-04-15T12:00:55.511Z,6.50
2023-04-15T12:03:28.624Z,6.55
2023-04-15T12:06:24.920Z,6.80
2023-04-15T12:09:07.637Z,7.43
2023-04-15T12:11:43.956Z,7.38
2023-04-15T12:14:20.218Z,6.22
2023-04-15T12:16:54.259Z,6.00
2023-04-15T12:22:40.967Z,5.18
2023-04-15T12:25:49.000Z,6.20
2023-04-15T12:28:45.942Z,6.73
2023-04-15T12:31:26.569Z,6.63
2023-04-15T12:33:56.729Z,6.22
2023-04-15T12:36:24.173Z,6.93
2023-04-15T12:38:51.344Z,8.02
2023-04-15T12:41:41.054Z,7.55
2023-04-15T12:44:24.097Z,7.72
2023-04-15T12:46:53.619Z,7.80
2023-04-15T12:49:21.971Z,8.05
2023-04-15T12:51:50.465Z,7.47
2023-04-15T12:54:18.594Z,7.53
2023-04-15T12:56:47.204Z,8.48
2023-04-15T12:59:34.007Z,6.53
2023-04-15T13:02:15.900Z,8.15
2023-04-15T13:04:43.150Z,8.55
2023-04-15T13:07:30.328Z,7.22
2023-04-15T13:10:11.918Z,9.88
2023-04-15T13:12:53.991Z,6.00
2023-04-15T13:15:34.852Z,7.13
2023-04-15T13:18:02.095Z,9.30
2023-04-15T13:24:05.498Z,5.95
2023-04-15T13:26:45.984Z,6.60
2023-04-15T13:29:33.032Z,6.78
2023-04-15T13:32:13.856Z,8.02
2023-04-15T13:34:41.508Z,8.02
2023-04-15T13:37:16.203Z,7.28
2023-04-15T13:39:44.041Z,6.63
2023-04-15T13:42:11.793Z,9.38
2023-04-15T13:44:59.113Z,8.85
2023-04-15T13:47:41.476Z,8.27
2023-04-15T13:50:09.002Z,7.85
2023-04-15T13:52:40.180Z,6.97
2023-04-15T13:55:21.852Z,9.02
2023-04-15T13:57:50.689Z,7.53
2023-04-15T14:00:18.262Z,7.07
2023-04-15T14:02:47.194Z,6.35
2023-04-15T14:05:34.051Z,6.55
2023-04-15T14:08:36.980Z,8.13
2023-04-15T14:11:26.491Z,7.68
2023-04-15T14:13:53.640Z,7.07
2023-04-15T14:16:20.885Z,8.23
2023-04-15T14:18:48.368Z,5.88
2023-04-15T14:21:37.008Z,8.10
2023-04-15T14:24:48.067Z,8.18
2023-04-15T14:27:29.361Z,8.00
2023-04-15T14:29:58.058Z,10.30
2023-04-15T14:32:45.143Z,9.48
2023-04-15T14:35:48.547Z,8.10
2023-04-15T14:38:38.519Z,9.07
2023-04-15T14:41:12.813Z,10.35
2023-04-15T14:43:40.494Z,8.82
2023-04-15T14:46:28.384Z,8.82
2023-04-15T14:49:29.058Z,8.57
2023-04-15T14:52:13.423Z,8.20
2023-04-15T14:55:08.174Z,8.60
2023-04-15T14:57:49.890Z,7.68
2023-04-15T15:00:20.076Z,9.23
2023-04-15T15:02:49.796Z,8.13
2023-04-15T15:05:17.905Z,9.82
2023-04-15T15:11:31.870Z,7.82
2023-04-15T15:14:47.214Z,9.05
2023-04-15T15:17:23.727Z,9.60
2023-04-15T15:20:56.151Z,10.27
2023-04-15T15:24:45.053Z,9.82
2023-04-15T15:27:47.452Z,9.02
2023-04-15T15:30:19.509Z,10.23
2023-04-15T15:32:49.175Z,9.07
2023-04-15T15:35:42.769Z,10.43
2023-04-15T15:40:00.316Z,10.50
2023-04-15T15:42:40.851Z,11.30
2023-04-15T15:45:08.189Z,12.55
2023-04-15T15:47:38.861Z,9.10
2023-04-15T15:50:07.019Z,9.65
2023-04-15T15:52:37.784Z,10.98
2023-04-15T15:55:26.332Z,10.13
2023-04-15T15:58:07.151Z,10.05
2023-04-15T16:00:39.674Z,10.23
2023-04-15T16:03:08.097Z,10.23
2023-04-15T16:05:36.956Z,10.02
2023-04-15T16:08:24.222Z,10.50
2023-04-15T16:11:05.013Z,9.52
2023-04-15T16:13:35.824Z,10.23
2023-04-15T16:18:49.465Z,10.35
2023-04-15T16:21:36.142Z,9.98
2023-04-15T16:24:37.152Z,8.98
2023-04-15T16:27:50.244Z,10.07
2023-04-15T16:30:41.719Z,8.30
2023-04-15T16:33:11.256Z,8.77
2023-04-15T16:35:38.671Z,10.40
2023-04-15T16:38:06.736Z,8.23
2023-04-15T16:40:34.108Z,10.55
2023-04-15T16:43:01.702Z,8.75
2023-04-15T16:45:29.805Z,9.50
2023-04-15T16:47:57.384Z,9.25
2023-04-15T16:50:24.801Z,9.50
2023-04-15T16:52:53.126Z,10.95
2023-04-15T16:55:20.726Z,10.57
2023-04-15T16:58:00.722Z,11.25
2023-04-15T17:00:28.865Z,12.43
2023-04-15T17:02:56.251Z,12.73
2023-04-15T17:05:23.548Z,12.35
2023-04-15T17:07:50.819Z,11.07
2023-04-15T17:10:18.105Z,13.23
2023-04-15T17:12:45.149Z,11.68
2023-04-15T17:15:12.197Z,10.60
2023-04-15T17:17:43.552Z,12.90
2023-04-15T17:20:31.157Z,12.80
2023-04-15T17:23:32.225Z,14.18
2023-04-15T17:26:25.975Z,14.60
2023-04-15T17:28:54.555Z,14.40
2023-04-15T17:31:27.069Z,13.18
2023-04-15T17:34:15.882Z,8.50
2023-04-15T17:37:03.686Z,4.60
2023-04-15T17:39:50.632Z,5.15
2023-04-15T17:42:37.572Z,4.32
2023-04-15T17:45:24.581Z,5.25
2023-04-15T17:48:11.640Z,5.65
2023-04-15T17:50:58.561Z,5.47
2023-04-15T17:53:45.473Z,6.00
2023-04-15T17:56:33.872Z,3.60
2023-04-15T17:59:41.174Z,5.20
2023-04-15T18:02:41.870Z,6.47
2023-04-15T18:05:29.782Z,5.78
2023-04-15T18:08:16.701Z,4.85
2023-04-15T18:11:03.613Z,4.47
2023-04-15T18:13:50.663Z,4.38
2023-04-15T18:16:40.223Z,4.63
2023-04-15T18:19:27.467Z,3.88
2023-04-15T18:22:14.179Z,4.22
2023-04-15T18:25:15.218Z,4.28
2023-04-15T18:28:09.253Z,3.83
2023-04-15T18:30:49.738Z,3.58
2023-04-15T18:33:16.846Z,4.18
2023-04-15T18:35:44.479Z,4.45
2023-04-15T18:38:11.629Z,3.60
2023-04-15T18:40:39.348Z,3.80
2023-04-15T18:43:06.918Z,3.75
2023-04-15T18:45:34.321Z,3.42
2023-04-15T18:48:03.052Z,3.33
2023-04-15T18:50:30.132Z,4.60
2023-04-15T18:53:17.249Z,3.90
2023-04-15T18:56:18.252Z,3.38
2023-04-15T18:59:28.912Z,3.08
2023-04-15T19:01:59.756Z,2.80
2023-04-15T19:04:29.500Z,2.70
2023-04-15T19:07:19.375Z,2.88
2023-04-15T19:10:21.001Z,3.25
2023-04-15T19:13:03.233Z,3.35
2023-04-15T19:15:32.269Z,3.50
2023-04-15T19:17:59.482Z,2.78
2023-04-15T19:20:47.440Z,3.42
2023-04-15T19:23:27.985Z,3.05
2023-04-15T19:25:55.169Z,2.83
2023-04-15T19:28:22.796Z,3.10
2023-04-15T19:30:49.888Z,3.20
2023-04-15T19:33:17.164Z,3.45
2023-04-15T19:35:44.213Z,2.83
2023-04-15T19:38:12.221Z,4.00
2023-04-15T19:40:39.194Z,3.78
2023-04-15T19:43:09.922Z,3.67
2023-04-15T19:45:38.133Z,4.00
2023-04-15T19:48:06.995Z,2.85
2023-04-15T19:50:37.287Z,2.75
2023-04-15T19:53:18.574Z,3.42
2023-04-15T19:56:19.511Z,3.35
2023-04-15T19:59:19.566Z,3.33
2023-04-15T20:01:50.231Z,3.92
2023-04-15T20:04:21.093Z,3.60
2023-04-15T20:07:08.413Z,3.70
2023-04-15T20:09:49.186Z,3.10
2023-04-15T20:12:51.498Z,3.42
2023-04-15T20:15:10.760Z,3.83
2023-04-15T20:17:38.228Z,3.80
2023-04-15T20:20:25.308Z,3.05
2023-04-15T20:23:12.796Z,4.97
2023-04-15T20:25:41.124Z,5.35
2023-04-15T20:28:14.865Z,6.35
2023-04-15T20:30:45.523Z,4.45
2023-04-15T20:33:14.683Z,5.15
2023-04-15T20:35:47.590Z,3.55
2023-04-15T20:38:17.116Z,4.43
2023-04-15T20:40:44.216Z,4.55
2023-04-15T20:43:11.776Z,4.82
2023-04-15T20:45:39.217Z,3.72
2023-04-15T20:48:06.572Z,4.43
2023-04-15T20:50:33.744Z,4.55
2023-04-15T20:53:21.337Z,5.13
2023-04-15T20:56:22.347Z,4.28
2023-04-15T20:59:16.664Z,4.45
2023-04-15T21:01:43.687Z,4.75
2023-04-15T21:04:31.352Z,3.13
2023-04-15T21:07:32.261Z,3.97
2023-04-15T21:10:12.886Z,2.75
2023-04-15T21:12:41.177Z,2.45
2023-04-15T21:15:09.093Z,3.25
2023-04-15T21:17:36.145Z,3.30
2023-04-15T21:20:23.309Z,3.10
2023-04-15T21:23:10.805Z,4.10
2023-04-15T21:25:38.815Z,2.90
2023-04-15T21:28:05.917Z,3.53
2023-04-15T21:30:32.946Z,2.85
2023-04-15T21:32:59.985Z,2.42
2023-04-15T21:35:28.803Z,2.50
2023-04-15T21:37:56.131Z,2.83
2023-04-15T21:40:23.317Z,2.25
2023-04-15T21:43:10.325Z,2.55
2023-04-15T21:46:21.159Z,2.60
2023-04-15T21:48:37.713Z,2.03
2023-04-15T21:51:05.000Z,2.05
2023-04-15T21:53:32.085Z,3.25
2023-04-15T21:55:59.151Z,2.50
2023-04-15T21:58:26.308Z,2.72
2023-04-15T22:00:57.520Z,2.65
2023-04-15T22:03:24.764Z,2.50
2023-04-15T22:05:51.853Z,2.85
2023-04-15T22:08:18.934Z,2.17
2023-04-15T22:10:46.763Z,2.15
2023-04-15T22:13:14.449Z,2.65
2023-04-15T22:15:42.198Z,2.53
2023-04-15T22:18:09.436Z,2.25
2023-04-15T22:20:49.502Z,1.95
2023-04-15T22:23:43.342Z,1.95
2023-04-15T22:26:24.302Z,2.60
2023-04-15T22:28:51.730Z,2.67
2023-04-15T22:31:18.676Z,1.73
2023-04-15T22:33:45.684Z,2.55
2023-04-15T22:36:13.673Z,2.45
2023-04-15T22:38:40.868Z,2.75
2023-04-15T22:41:07.994Z,2.08
2023-04-15T22:43:34.990Z,2.47
2023-04-15T22:46:02.380Z,2.58
2023-04-15T22:48:29.453Z,3.13
2023-04-15T22:50:56.887Z,2.22
2023-04-15T22:53:44.358Z,2.60
2023-04-15T22:56:25.154Z,2.10
2023-04-15T22:58:52.284Z,2.00
2023-04-15T23:01:20.800Z,2.00
2023-04-15T23:04:03.458Z,2.65
2023-04-15T23:06:37.452Z,1.92
2023-04-15T23:09:04.600Z,2.05
2023-04-15T23:11:31.799Z,1.90
2023-04-15T23:13:58.804Z,2.03
2023-04-15T23:16:26.163Z,2.08
2023-04-15T23:18:53.197Z,2.92
2023-04-15T23:21:40.379Z,1.63
2023-04-15T23:24:41.353Z,2.10
2023-04-15T23:27:22.926Z,1.98
2023-04-15T23:29:49.889Z,1.70
2023-04-15T23:32:16.956Z,2.85
2023-04-15T23:34:43.933Z,2.22
2023-04-15T23:37:11.498Z,2.42
2023-04-15T23:39:38.496Z,2.30
2023-04-15T23:42:25.437Z,2.33
2023-04-15T23:45:06.718Z,2.45
2023-04-15T23:47:33.681Z,1.88
2023-04-15T23:50:00.719Z,1.98
2023-04-15T23:52:27.916Z,2.75
2023-04-15T23:54:54.858Z,2.40
2023-04-15T23:57:21.915Z,2.22
2023-04-15T23:59:48.857Z,2.20
